Time;durP1;ratioP1;P1;durP2;ratioP2;P2;SDS_P1;SDS_P2;PMS_P1;PMS_P2;Temp;Humidity;BMP_temperature;BMP_pressure;BME280_temperature;BME280_humidity;BME280_pressure;Samples;Min_cycle;Max_cycle;Signal;HPM_P1;HPM_P2
2021/05/23 00:01:56;;;;;;;2.50;1.15;;;;;;;16.90;56.81;100538.59;1799055;77;22156;-50
2021/05/23 00:04:41;;;;;;;2.72;1.40;;;;;;;16.80;56.85;100540.69;1731865;83;21633;-51
2021/05/23 00:07:15;;;;;;;1.80;1.10;;;;;;;16.78;56.89;100534.56;1831610;77;22168;-50
2021/05/23 00:09:48;;;;;;;3.00;1.20;;;;;;;16.75;56.90;100529.38;1843009;77;22171;-50
2021/05/23 00:12:22;;;;;;;2.58;1.35;;;;;;;16.72;56.92;100532.15;1848261;77;22197;-50
2021/05/23 00:14:55;;;;;;;1.70;1.10;;;;;;;16.68;56.92;100531.84;1834778;77;22148;-50
2021/05/23 00:17:28;;;;;;;2.22;1.10;;;;;;;16.68;56.92;100522.55;1846796;77;22185;-50
2021/05/23 00:20:14;;;;;;;1.35;1.10;;;;;;;16.64;56.89;100520.91;1772322;80;21119;-50
2021/05/23 00:22:48;;;;;;;2.33;1.20;;;;;;;16.67;56.88;100506.19;1824150;77;22167;-50
2021/05/23 00:25:22;;;;;;;2.05;1.10;;;;;;;16.66;56.79;100493.83;1834743;77;22152;-50
2021/05/23 00:27:55;;;;;;;2.80;1.10;;;;;;;17.37;55.11;100492.53;1819615;77;22166;-50
2021/05/23 00:30:41;;;;;;;1.45;1.10;;;;;;;16.97;55.94;100498.52;1761804;81;21166;-51
2021/05/23 00:33:14;;;;;;;1.65;1.10;;;;;;;17.01;55.56;100489.48;1836210;77;22170;-50
2021/05/23 00:35:47;;;;;;;1.40;1.10;;;;;;;17.36;54.84;100486.81;1853089;77;22159;-49
2021/05/23 00:38:20;;;;;;;1.62;0.93;;;;;;;17.53;54.21;100485.30;1796785;77;22172;-50
2021/05/23 00:40:54;;;;;;;1.70;1.10;;;;;;;17.54;54.02;100484.37;1834877;77;22180;-50
2021/05/23 00:43:27;;;;;;;1.45;1.00;;;;;;;17.56;53.94;100492.27;1815239;77;22159;-50
2021/05/23 00:46:00;;;;;;;3.20;1.00;;;;;;;17.54;53.84;100497.20;1848219;77;22197;-50
2021/05/23 00:48:33;;;;;;;1.85;1.00;;;;;;;17.57;53.79;100498.00;1831586;77;22625;-50
2021/05/23 00:51:19;;;;;;;2.92;0.85;;;;;;;17.51;53.75;100491.98;1793014;80;21157;-50
2021/05/23 00:53:52;;;;;;;2.27;1.10;;;;;;;17.54;53.84;100493.69;1809650;77;22186;-50
2021/05/23 00:56:25;;;;;;;1.40;1.02;;;;;;;17.58;53.80;100495.30;1833184;77;22543;-50
2021/05/23 00:59:12;;;;;;;1.72;1.02;;;;;;;17.55;53.78;100495.41;1694141;84;21146;-51
2021/05/23 01:01:56;;;;;;;2.35;1.00;;;;;;;17.60;53.78;100490.78;1834774;77;22176;-50
2021/05/23 01:04:30;;;;;;;1.75;1.02;;;;;;;17.63;53.77;100487.11;1832194;77;22119;-50
2021/05/23 01:07:03;;;;;;;2.45;1.00;;;;;;;17.59;53.90;100490.38;1833431;77;22599;-49
2021/05/23 01:09:50;;;;;;;1.82;1.00;;;;;;;17.51;54.13;100495.13;1761547;80;21142;-50
2021/05/23 01:12:41;;;;;;;2.42;1.15;;;;;;;17.51;54.16;100488.00;1829733;77;22186;-50
2021/05/23 01:15:14;;;;;;;3.72;1.05;;;;;;;17.52;54.17;100484.89;1852132;77;22143;-50
2021/05/23 01:18:03;;;;;;;1.75;1.10;;;;;;;17.48;54.17;100483.28;1812524;78;21199;-51
2021/05/23 01:21:00;;;;;;;1.12;1.00;;;;;;;16.79;55.95;100479.62;1834764;77;22156;-50
2021/05/23 01:23:44;;;;;;;1.65;1.10;;;;;;;16.68;56.35;100481.80;1813289;77;22590;-50
2021/05/23 01:26:17;;;;;;;3.35;1.12;;;;;;;17.08;55.63;100487.88;1830167;77;22131;-50
2021/05/23 01:28:56;;;;;;;2.58;1.52;;;;;;;17.41;54.82;100477.79;1827798;77;22185;-50
2021/05/23 01:31:42;;;;;;;1.52;1.20;;;;;;;17.43;54.70;100491.45;1789011;80;21140;-51
2021/05/23 01:34:18;;;;;;;2.25;1.50;;;;;;;17.50;54.74;100488.08;1804434;77;22590;-50
2021/05/23 01:36:55;;;;;;;2.80;1.80;;;;;;;17.48;54.88;100489.45;1819164;77;28394;-50
2021/05/23 01:39:28;;;;;;;4.15;1.30;;;;;;;17.51;54.94;100488.48;1834777;77;22180;-50
2021/05/23 01:42:01;;;;;;;3.20;1.40;;;;;;;17.56;54.98;100484.30;1828792;77;22135;-50
2021/05/23 01:44:48;;;;;;;1.32;0.93;;;;;;;17.55;54.92;100494.09;1763674;81;21162;-51
2021/05/23 01:47:21;;;;;;;3.27;1.00;;;;;;;17.58;55.07;100489.09;1848464;77;22665;-50
2021/05/23 01:49:54;;;;;;;2.83;1.30;;;;;;;17.60;55.14;100492.56;1852355;77;22201;-50
2021/05/23 01:52:27;;;;;;;2.05;1.22;;;;;;;17.59;55.16;100497.03;1828848;77;22166;-50
2021/05/23 01:55:00;;;;;;;1.87;1.25;;;;;;;17.61;55.23;100498.28;1827364;77;22167;-50
2021/05/23 01:57:33;;;;;;;3.40;1.70;;;;;;;17.62;55.31;100502.23;1845642;77;22578;-50
2021/05/23 02:00:26;;;;;;;3.60;1.15;;;;;;;17.60;55.34;100501.87;1792866;80;21276;-51
2021/05/23 02:03:00;;;;;;;2.27;1.40;;;;;;;17.68;55.27;100501.11;1821531;77;22174;-50
2021/05/23 02:05:35;;;;;;;4.67;1.30;;;;;;;17.68;55.39;100497.12;1807687;77;22158;-50
2021/05/23 02:08:08;;;;;;;3.45;1.00;;;;;;;17.66;55.46;100501.16;1819490;77;22174;-50
2021/05/23 02:10:41;;;;;;;1.90;1.20;;;;;;;17.65;55.69;100506.11;1853238;77;22154;-50
2021/05/23 02:13:14;;;;;;;4.20;1.40;;;;;;;17.63;55.77;100510.63;1817379;77;22182;-50
2021/05/23 02:15:48;;;;;;;2.50;1.40;;;;;;;17.63;55.96;100510.63;1834670;77;22669;-50
2021/05/23 02:18:21;;;;;;;1.95;1.30;;;;;;;17.61;56.15;100520.91;1811695;77;22221;-50
2021/05/23 02:20:54;;;;;;;2.87;1.55;;;;;;;17.61;56.17;100527.56;1834729;77;22188;-50
2021/05/23 02:23:27;;;;;;;3.12;1.50;;;;;;;17.59;56.38;100530.30;1814573;77;22182;-50
2021/05/23 02:26:13;;;;;;;1.87;1.35;;;;;;;17.53;56.45;100539.37;1760891;81;21142;-50
2021/05/23 02:28:46;;;;;;;2.00;1.47;;;;;;;17.54;56.63;100533.12;1811024;77;22186;-50
2021/05/23 02:31:19;;;;;;;3.60;1.62;;;;;;;17.54;56.78;100534.45;1833312;77;22564;-50
2021/05/23 02:33:53;;;;;;;4.65;1.62;;;;;;;17.55;56.83;100537.99;1809465;77;22613;-50
2021/05/23 02:36:26;;;;;;;1.98;1.40;;;;;;;17.54;56.98;100530.45;1830002;77;22135;-50
2021/05/23 02:39:06;;;;;;;4.78;1.70;;;;;;;17.57;57.04;100531.27;1824330;77;22577;-50
2021/05/23 02:41:39;;;;;;;4.10;1.52;;;;;;;17.57;57.11;100532.16;1833594;77;22164;-50
2021/05/23 02:44:25;;;;;;;3.00;1.75;;;;;;;17.52;57.20;100544.77;1764188;80;21194;-51
2021/05/23 02:46:58;;;;;;;2.95;1.22;;;;;;;17.53;57.37;100546.02;1853134;77;22151;-50
2021/05/23 02:49:31;;;;;;;3.60;2.00;;;;;;;17.52;57.49;100545.61;1834784;77;22583;-50
2021/05/23 02:52:18;;;;;;;3.45;1.95;;;;;;;17.46;57.61;100536.53;1762370;80;21597;-52
2021/05/23 02:54:52;;;;;;;5.65;1.62;;;;;;;17.49;57.80;100532.91;1833425;77;22140;-50
2021/05/23 02:57:25;;;;;;;4.28;1.60;;;;;;;17.48;57.92;100532.02;1829344;77;22167;-50
2021/05/23 02:59:58;;;;;;;4.03;1.62;;;;;;;17.49;58.20;100528.44;1834764;77;22595;-50
2021/05/23 03:02:35;;;;;;;2.95;1.70;;;;;;;17.51;58.39;100526.58;1789529;77;22151;-50
2021/05/23 03:05:10;;;;;;;2.22;1.50;;;;;;;17.54;58.40;100522.48;1834750;77;22176;-50
2021/05/23 03:07:46;;;;;;;3.92;2.40;;;;;;;17.55;58.51;100524.69;1827534;77;28059;-50
2021/05/23 03:10:23;;;;;;;3.35;2.47;;;;;;;17.59;58.64;100528.97;1813647;77;28379;-50
2021/05/23 03:13:09;;;;;;;3.75;1.98;;;;;;;17.63;58.88;100530.58;1781414;80;21134;-51
2021/05/23 03:15:42;;;;;;;2.05;1.60;;;;;;;17.74;58.79;100527.48;1834768;77;22175;-50
2021/05/23 03:18:15;;;;;;;2.40;1.80;;;;;;;17.79;58.81;100525.95;1817462;77;22186;-50
2021/05/23 03:20:49;;;;;;;2.77;1.75;;;;;;;17.83;58.90;100527.12;1813399;77;22154;-49
2021/05/23 03:23:34;;;;;;;4.05;1.80;;;;;;;17.85;58.89;100528.37;1698533;84;21347;-51
2021/05/23 03:26:07;;;;;;;2.85;1.50;;;;;;;17.94;59.01;100532.45;1834791;77;22180;-50
2021/05/23 03:28:40;;;;;;;2.33;1.55;;;;;;;17.98;59.00;100538.95;1807930;77;22182;-50
2021/05/23 03:31:14;;;;;;;2.40;1.67;;;;;;;18.05;59.13;100550.72;1834769;77;22599;-50
2021/05/23 03:33:47;;;;;;;2.42;1.60;;;;;;;18.12;59.13;100546.84;1810839;77;22167;-50
2021/05/23 03:36:33;;;;;;;4.53;2.05;;;;;;;18.16;59.27;100547.12;1759691;80;21577;-49
2021/05/23 03:39:06;;;;;;;3.25;1.72;;;;;;;18.30;59.24;100549.23;1802643;77;22677;-49
2021/05/23 03:41:39;;;;;;;4.42;2.10;;;;;;;18.38;59.21;100543.09;1831983;77;22163;-50
2021/05/23 03:44:12;;;;;;;3.42;1.90;;;;;;;18.44;59.33;100543.31;1805232;77;22602;-49
2021/05/23 03:47:00;;;;;;;5.05;2.05;;;;;;;18.46;59.27;100552.56;1746846;80;21166;-51
2021/05/23 03:49:37;;;;;;;3.20;1.92;;;;;;;18.55;59.29;100547.70;1834771;77;22180;-53
2021/05/23 03:52:09;;;;;;;3.70;1.90;;;;;;;18.61;59.00;100547.04;1833155;77;22180;-52
2021/05/23 03:54:56;;;;;;;4.65;2.00;;;;;;;18.70;59.04;100560.86;1756525;81;21123;-51
2021/05/23 03:57:29;;;;;;;4.85;2.30;;;;;;;18.83;59.11;100557.62;1828119;77;22183;-50
2021/05/23 04:00:05;;;;;;;3.65;2.10;;;;;;;18.88;59.08;100564.97;1853099;77;22182;-51
2021/05/23 04:02:39;;;;;;;2.70;1.72;;;;;;;18.96;59.28;100566.02;1821293;77;20116;-51
2021/05/23 04:05:27;;;;;;;5.40;2.20;;;;;;;19.03;59.48;100571.45;1774190;80;21127;-51
2021/05/23 04:08:00;;;;;;;4.30;2.12;;;;;;;19.23;59.52;100563.02;1817464;77;22575;-51
2021/05/23 04:10:40;;;;;;;4.40;1.75;;;;;;;19.38;59.49;100562.33;1831062;77;22148;-51
2021/05/23 04:13:11;;;;;;;2.65;1.70;;;;;;;19.53;59.19;100563.87;1808791;77;22581;-51
2021/05/23 04:15:57;;;;;;;3.00;1.80;;;;;;;19.62;58.87;100567.45;1755712;81;21138;-52
2021/05/23 04:18:30;;;;;;;3.45;1.62;;;;;;;19.87;58.48;100559.61;1792595;77;22228;-51
2021/05/23 04:21:04;;;;;;;2.80;1.72;;;;;;;19.99;57.82;100556.35;1817032;77;22142;-51
2021/05/23 04:23:37;;;;;;;3.72;1.87;;;;;;;20.09;57.57;100551.41;1799502;77;22154;-51
2021/05/23 04:26:24;;;;;;;2.22;1.60;;;;;;;20.14;57.14;100560.07;1746400;81;21135;-52
2021/05/23 04:28:57;;;;;;;2.92;1.67;;;;;;;20.29;57.14;100566.94;1808387;77;22173;-53
2021/05/23 04:31:30;;;;;;;2.87;1.90;;;;;;;20.40;56.99;100561.93;1818869;77;22138;-51
2021/05/23 04:34:03;;;;;;;7.28;1.90;;;;;;;20.51;56.79;100561.38;1793289;77;22178;-51
2021/05/23 04:36:48;;;;;;;3.47;1.60;;;;;;;20.57;56.57;100566.41;1743489;81;21561;-51
2021/05/23 04:39:22;;;;;;;3.52;1.60;;;;;;;20.74;56.37;100570.88;1808937;77;22221;-51
2021/05/23 04:41:55;;;;;;;3.15;1.80;;;;;;;20.86;56.46;100578.77;1824209;77;22116;-51
2021/05/23 04:44:40;;;;;;;7.22;1.92;;;;;;;20.97;56.20;100570.66;1770275;80;21103;-52
2021/05/23 04:47:14;;;;;;;4.05;1.92;;;;;;;21.18;55.97;100570.86;1825542;77;22185;-51
2021/05/23 04:49:47;;;;;;;2.90;1.95;;;;;;;21.31;55.73;100572.39;1822233;77;22535;-51
2021/05/23 04:52:20;;;;;;;5.25;1.92;;;;;;;21.44;55.28;100575.72;1830460;77;22595;-51
2021/05/23 04:54:53;;;;;;;2.75;1.80;;;;;;;21.51;55.01;100579.33;1829658;77;22121;-52
2021/05/23 04:57:26;;;;;;;3.47;1.60;;;;;;;21.64;54.58;100578.20;1797352;77;22214;-51
2021/05/23 04:59:59;;;;;;;3.58;1.50;;;;;;;21.75;54.05;100582.95;1829333;77;22159;-51
2021/05/23 05:02:45;;;;;;;3.47;1.60;;;;;;;21.76;53.43;100584.69;1769551;80;21137;-52
2021/05/23 05:05:19;;;;;;;3.12;1.42;;;;;;;21.82;52.50;100587.52;1834740;77;22179;-51
2021/05/23 05:07:52;;;;;;;3.12;1.60;;;;;;;21.90;52.43;100592.42;1841212;77;22173;-52
2021/05/23 05:10:25;;;;;;;3.50;1.57;;;;;;;21.95;52.02;100597.05;1834757;77;22176;-51
2021/05/23 05:13:11;;;;;;;2.80;1.40;;;;;;;21.83;51.94;100606.16;1759199;80;21158;-52
2021/05/23 05:15:44;;;;;;;9.55;1.92;;;;;;;21.83;51.80;100604.83;1834742;77;22140;-52
2021/05/23 05:18:17;;;;;;;3.05;1.65;;;;;;;21.78;51.56;100603.36;1817444;77;22194;-52
2021/05/23 05:20:53;;;;;;;3.30;1.45;;;;;;;21.69;52.01;100596.23;1834759;77;22180;-52
2021/05/23 05:23:26;;;;;;;2.95;1.60;;;;;;;21.68;52.27;100593.16;1798405;77;22179;-52
2021/05/23 05:26:11;;;;;;;3.55;1.42;;;;;;;21.70;52.37;100590.38;1758604;81;21127;-52
2021/05/23 05:28:45;;;;;;;2.35;1.57;;;;;;;21.78;52.75;100581.94;1829117;77;22213;-52
2021/05/23 05:31:18;;;;;;;3.47;1.55;;;;;;;21.85;52.56;100580.64;1834742;77;22164;-52
2021/05/23 05:33:51;;;;;;;3.22;1.90;;;;;;;21.96;51.98;100574.67;1802622;77;22194;-52
2021/05/23 05:36:25;;;;;;;3.85;1.65;;;;;;;22.07;51.76;100567.34;1834731;77;22176;-52
2021/05/23 05:39:11;;;;;;;4.58;2.22;;;;;;;22.21;51.04;100578.59;1731991;80;21307;-53
2021/05/23 05:41:44;;;;;;;3.58;1.65;;;;;;;22.41;50.88;100589.03;1833783;77;22140;-52
2021/05/23 05:44:17;;;;;;;3.95;1.82;;;;;;;22.37;50.20;100583.47;1804027;77;22202;-52
2021/05/23 05:47:04;;;;;;;4.30;1.70;;;;;;;22.50;50.21;100594.36;1762117;80;21154;-52
2021/05/23 05:49:43;;;;;;;3.27;2.02;;;;;;;22.21;50.65;100592.88;1831931;77;22147;-52
2021/05/23 05:52:16;;;;;;;2.40;1.30;;;;;;;22.37;50.96;100601.35;1825199;77;22171;-52
2021/05/23 05:54:55;;;;;;;4.40;1.92;;;;;;;22.70;50.52;100608.41;1833944;77;22612;-52
2021/05/23 05:57:41;;;;;;;3.20;1.60;;;;;;;22.81;50.44;100612.64;1784832;80;21726;-53
2021/05/23 06:00:15;;;;;;;2.75;1.90;;;;;;;23.00;50.49;100606.16;1821931;77;22708;-52
2021/05/23 06:02:48;;;;;;;2.55;1.52;;;;;;;23.07;50.04;100598.59;1816998;77;22198;-52
2021/05/23 06:05:21;;;;;;;3.12;1.87;;;;;;;23.15;49.56;100604.36;1852602;77;22183;-52
2021/05/23 06:07:54;;;;;;;5.55;1.40;;;;;;;23.29;49.82;100603.06;1807209;77;22173;-53
2021/05/23 06:10:40;;;;;;;3.17;1.80;;;;;;;23.34;49.22;100597.89;1762044;81;21094;-53
2021/05/23 06:13:14;;;;;;;3.90;1.67;;;;;;;23.60;48.97;100592.21;1816876;77;22179;-52
2021/05/23 06:15:47;;;;;;;2.90;1.67;;;;;;;23.94;48.02;100591.83;1827501;77;22159;-52
2021/05/23 06:18:25;;;;;;;3.15;1.50;;;;;;;24.11;46.88;100586.72;1808659;77;22170;-53
2021/05/23 06:21:10;;;;;;;2.35;1.57;;;;;;;24.18;46.96;100594.30;1762098;81;21106;-54
2021/05/23 06:23:43;;;;;;;2.08;1.45;;;;;;;24.40;46.86;100586.13;1787560;77;22197;-52
2021/05/23 06:26:17;;;;;;;2.80;1.55;;;;;;;24.59;46.73;100583.55;1818686;77;22142;-53
2021/05/23 06:28:50;;;;;;;2.60;1.40;;;;;;;24.84;46.77;100577.37;1782298;77;22218;-52
2021/05/23 06:31:23;;;;;;;3.00;1.60;;;;;;;25.09;46.11;100578.33;1852604;77;22163;-53
2021/05/23 06:33:59;;;;;;;16.45;2.00;;;;;;;25.33;45.21;100578.92;1796483;77;22202;-52
2021/05/23 06:36:32;;;;;;;2.90;1.30;;;;;;;25.50;44.68;100581.27;1835852;77;22151;-53
2021/05/23 06:39:06;;;;;;;2.62;1.62;;;;;;;25.57;43.73;100582.18;1806240;77;22578;-53
2021/05/23 06:41:51;;;;;;;2.85;1.55;;;;;;;25.53;44.18;100589.14;1762061;81;21159;-55
2021/05/23 06:44:24;;;;;;;3.25;1.55;;;;;;;25.90;43.93;100584.72;1817895;77;22615;-53
2021/05/23 06:46:58;;;;;;;4.33;2.00;;;;;;;26.14;43.47;100588.80;1853079;77;22143;-53
2021/05/23 06:49:31;;;;;;;2.67;1.67;;;;;;;26.36;43.53;100592.60;1823475;77;22570;-53
2021/05/23 06:52:05;;;;;;;2.98;1.80;;;;;;;26.61;43.07;100594.77;1828033;77;22164;-53
2021/05/23 06:54:38;;;;;;;3.12;1.62;;;;;;;26.76;42.31;100585.48;1813097;77;22138;-53
2021/05/23 06:57:11;;;;;;;2.02;1.35;;;;;;;26.88;41.83;100578.80;1831620;77;22579;-53
2021/05/23 06:59:44;;;;;;;2.02;1.52;;;;;;;26.98;42.14;100575.25;1834873;77;22171;-53
2021/05/23 07:02:17;;;;;;;4.05;1.82;;;;;;;27.20;40.73;100569.48;1848877;77;22174;-53
2021/05/23 07:04:54;;;;;;;2.40;1.50;;;;;;;27.27;40.43;100565.81;1834854;77;22167;-53
2021/05/23 07:07:28;;;;;;;4.05;1.40;;;;;;;27.39;40.98;100570.20;1828044;77;22174;-53
2021/05/23 07:10:16;;;;;;;2.50;1.40;;;;;;;27.45;40.55;100581.88;1761865;80;21158;-53
2021/05/23 07:12:49;;;;;;;3.12;1.77;;;;;;;27.48;40.62;100576.77;1817353;77;22213;-52
2021/05/23 07:15:22;;;;;;;3.47;1.47;;;;;;;26.67;42.23;100579.45;1831725;77;22115;-53
2021/05/23 07:18:08;;;;;;;2.62;1.70;;;;;;;27.15;41.82;100577.12;1760549;81;21280;-53
2021/05/23 07:20:41;;;;;;;2.27;1.70;;;;;;;27.29;41.46;100571.95;1827904;77;22579;-53
2021/05/23 07:23:14;;;;;;;3.52;1.70;;;;;;;27.43;41.25;100570.84;1818143;77;22167;-53
2021/05/23 07:25:48;;;;;;;2.67;2.00;;;;;;;27.64;41.44;100561.98;1830042;77;22154;-53
2021/05/23 07:28:34;;;;;;;3.83;1.60;;;;;;;27.79;41.57;100569.36;1727632;82;21175;-53
2021/05/23 07:31:07;;;;;;;2.10;1.30;;;;;;;28.11;40.96;100571.22;1809353;77;22558;-52
2021/05/23 07:33:40;;;;;;;2.95;1.70;;;;;;;28.18;40.54;100580.58;1830280;77;22656;-52
2021/05/23 07:36:26;;;;;;;3.08;1.72;;;;;;;28.17;41.04;100581.56;1792829;80;21130;-54
2021/05/23 07:38:59;;;;;;;3.65;1.98;;;;;;;28.24;40.68;100580.55;1799752;77;22173;-53
2021/05/23 07:41:32;;;;;;;3.30;1.60;;;;;;;28.34;40.62;100572.02;1834752;77;22155;-53
2021/05/23 07:44:06;;;;;;;3.80;1.75;;;;;;;28.36;40.14;100567.34;1806612;77;22167;-53
2021/05/23 07:46:39;;;;;;;2.70;1.70;;;;;;;28.47;40.62;100576.77;1834787;77;22175;-53
2021/05/23 07:49:25;;;;;;;3.33;1.62;;;;;;;28.60;40.69;100577.05;1727680;80;21592;-54
2021/05/23 07:51:58;;;;;;;1.87;1.37;;;;;;;28.77;39.82;100569.73;1834727;77;22179;-53
2021/05/23 07:54:31;;;;;;;2.22;1.50;;;;;;;28.78;39.84;100575.51;1833997;77;22131;-53
2021/05/23 07:57:17;;;;;;;2.65;1.70;;;;;;;28.72;39.42;100592.73;1724555;83;21130;-54
2021/05/23 07:59:52;;;;;;;2.75;1.45;;;;;;;28.71;39.72;100588.30;1838363;77;22560;-53
2021/05/23 08:02:25;;;;;;;3.58;1.60;;;;;;;28.85;39.50;100584.45;1828957;77;22189;-53
2021/05/23 08:04:58;;;;;;;2.58;1.67;;;;;;;29.07;39.20;100582.09;1820052;77;22177;-53
2021/05/23 08:07:45;;;;;;;6.05;1.82;;;;;;;29.34;38.83;100593.70;1790436;80;21122;-55
2021/05/23 08:10:18;;;;;;;4.85;1.57;;;;;;;29.73;38.14;100587.56;1834739;77;22650;-53
2021/05/23 08:12:51;;;;;;;2.85;1.60;;;;;;;29.97;37.53;100589.05;1811772;77;22185;-53
2021/05/23 08:15:24;;;;;;;2.62;1.52;;;;;;;30.02;36.95;100592.72;1821316;77;22182;-53
2021/05/23 08:18:15;;;;;;;2.30;1.70;;;;;;;30.07;36.99;100587.22;1726676;82;21786;-55
2021/05/23 08:20:49;;;;;;;1.80;1.62;;;;;;;30.36;36.54;100575.53;1834770;77;22179;-53
2021/05/23 08:23:23;;;;;;;3.10;1.52;;;;;;;30.47;36.86;100576.39;1795885;77;22255;-53
2021/05/23 08:25:57;;;;;;;2.00;1.32;;;;;;;30.53;36.04;100573.94;1834839;77;22155;-53
2021/05/23 08:28:32;;;;;;;2.70;1.52;;;;;;;30.84;36.03;100575.64;1814692;77;22594;-53
2021/05/23 08:31:17;;;;;;;10.30;2.00;;;;;;;31.09;34.39;100580.06;1761879;80;21312;-54
2021/05/23 08:33:51;;;;;;;3.25;1.60;;;;;;;31.19;35.51;100578.20;1794712;77;22183;-53
2021/05/23 08:36:43;;;;;;;3.83;1.70;;;;;;;31.08;35.21;100581.06;1823132;77;22216;-55
2021/05/23 08:39:16;;;;;;;2.47;1.30;;;;;;;31.21;35.82;100577.55;1791317;77;22158;-53
2021/05/23 08:42:09;;;;;;;2.98;1.50;;;;;;;31.57;33.98;100576.82;1822895;77;22223;-55
2021/05/23 08:44:56;;;;;;;1.95;1.35;;;;;;;31.65;34.37;100589.13;1766165;81;21173;-54
2021/05/23 08:47:29;;;;;;;2.77;1.40;;;;;;;31.91;33.81;100587.09;1828430;77;22170;-54
2021/05/23 08:50:09;;;;;;;4.28;1.47;;;;;;;32.04;32.43;100582.10;1833797;77;22188;-53
2021/05/23 08:53:01;;;;;;;4.00;1.65;;;;;;;31.98;33.16;100585.47;1750290;80;21372;-55
2021/05/23 08:55:43;;;;;;;4.25;1.60;;;;;;;32.52;33.53;100579.16;1818352;77;28325;-53
2021/05/23 08:58:16;;;;;;;4.12;1.67;;;;;;;32.77;32.40;100585.64;1802563;77;28049;-53
2021/05/23 09:01:02;;;;;;;2.80;1.35;;;;;;;32.55;32.13;100582.09;1761723;80;21087;-55
2021/05/23 09:03:35;;;;;;;7.40;1.30;;;;;;;33.23;31.80;100579.13;1831462;77;22189;-53
2021/05/23 09:06:14;;;;;;;7.45;1.52;;;;;;;33.82;31.24;100578.37;1834034;77;22160;-54
2021/05/23 09:08:57;;;;;;;2.20;1.02;;;;;;;34.00;29.45;100577.42;1810773;77;22621;-54
2021/05/23 09:11:30;;;;;;;4.00;1.42;;;;;;;34.41;29.40;100569.26;1826604;77;22115;-54
2021/05/23 09:14:33;;;;;;;5.95;1.10;;;;;;;34.89;29.98;100580.33;1767020;80;21162;-55
2021/05/23 09:17:08;;;;;;;3.02;1.10;;;;;;;34.99;28.09;100571.45;1833462;77;22140;-54
2021/05/23 09:19:42;;;;;;;2.15;1.17;;;;;;;34.97;26.84;100573.51;1812811;77;22139;-53
2021/05/23 09:22:19;;;;;;;2.72;1.10;;;;;;;35.09;27.30;100571.77;1831449;77;22599;-53
2021/05/23 09:24:57;;;;;;;2.40;1.00;;;;;;;35.23;26.83;100572.92;1834755;77;22152;-54
2021/05/23 09:27:45;;;;;;;1.35;0.75;;;;;;;35.39;26.89;100574.73;1784432;80;21154;-53
2021/05/23 09:30:25;;;;;;;4.83;1.12;;;;;;;35.77;27.15;100572.70;1827551;77;22578;-54
2021/05/23 09:32:58;;;;;;;2.65;1.00;;;;;;;36.20;27.94;100565.40;1822024;77;22190;-53
2021/05/23 09:35:45;;;;;;;2.05;1.00;;;;;;;36.42;25.31;100559.56;1762148;80;21151;-54
2021/05/23 09:38:18;;;;;;;5.08;1.05;;;;;;;36.36;25.96;100565.77;1811799;77;22178;-53
2021/05/23 09:40:52;;;;;;;3.55;1.10;;;;;;;36.49;26.54;100563.30;1834845;77;22152;-53
2021/05/23 09:43:38;;;;;;;3.08;1.27;;;;;;;36.69;26.09;100561.38;1728576;82;21191;-54
2021/05/23 09:46:11;;;;;;;5.70;1.10;;;;;;;36.42;25.67;100563.67;1834767;77;22168;-53
2021/05/23 09:48:51;;;;;;;2.15;1.10;;;;;;;36.23;24.61;100560.92;1811278;77;22623;-53
2021/05/23 09:51:37;;;;;;;6.10;1.52;;;;;;;36.09;25.29;100570.27;1761971;81;21713;-55
2021/05/23 09:54:11;;;;;;;8.65;1.70;;;;;;;36.29;26.52;100559.66;1798266;77;22178;-55
2021/05/23 09:56:50;;;;;;;2.72;1.15;;;;;;;36.50;26.12;100554.55;1836849;77;22146;-54
2021/05/23 09:59:28;;;;;;;7.22;1.82;;;;;;;36.54;25.64;100552.64;1820281;77;22229;-54
2021/05/23 10:02:10;;;;;;;8.28;1.57;;;;;;;36.87;25.97;100560.52;1815283;77;22151;-53
2021/05/23 10:04:43;;;;;;;3.17;1.32;;;;;;;36.99;24.91;100560.92;1834728;77;22152;-53
2021/05/23 10:07:16;;;;;;;2.60;1.17;;;;;;;37.18;25.98;100561.41;1832876;77;22115;-53
2021/05/23 10:10:02;;;;;;;2.72;1.17;;;;;;;37.38;24.51;100572.64;1762650;80;21594;-54
2021/05/23 10:12:35;;;;;;;4.45;1.20;;;;;;;37.78;25.67;100562.67;1845155;77;22186;-53
2021/05/23 10:15:10;;;;;;;14.03;1.75;;;;;;;38.18;25.30;100565.02;1832001;77;22115;-54
2021/05/23 10:17:56;;;;;;;1.92;1.15;;;;;;;38.27;23.55;100572.08;1784415;80;21649;-54
2021/05/23 10:20:30;;;;;;;26.90;3.67;;;;;;;37.98;22.33;100564.28;1810613;77;22589;-54
2021/05/23 10:23:13;;;;;;;31.30;5.78;;;;;;;37.82;23.60;100565.89;1838837;77;22630;-54
2021/05/23 10:26:02;;;;;;;15.18;2.67;;;;;;;37.64;23.36;100572.15;1792889;80;21284;-55
2021/05/23 10:28:44;;;;;;;2.52;1.55;;;;;;;37.64;23.78;100565.28;1830303;77;22163;-54
2021/05/23 10:31:33;;;;;;;15.48;2.72;;;;;;;37.84;24.08;100561.06;1834757;77;22155;-54
2021/05/23 10:34:06;;;;;;;22.45;3.60;;;;;;;38.30;22.60;100564.82;1806423;77;22184;-54
2021/05/23 10:36:42;;;;;;;11.90;1.98;;;;;;;38.32;23.36;100570.10;1834734;77;22202;-54
2021/05/23 10:39:37;;;;;;;3.72;1.52;;;;;;;38.43;23.37;100572.35;1761932;81;21579;-53
2021/05/23 10:42:13;;;;;;;1.72;1.00;;;;;;;38.77;22.88;100561.61;1832597;77;22128;-53
2021/05/23 10:44:50;;;;;;;2.98;1.07;;;;;;;39.00;21.21;100577.00;1825681;77;22162;-53
2021/05/23 10:47:34;;;;;;;3.72;1.35;;;;;;;38.86;21.34;100574.70;1814876;77;22226;-53
2021/05/23 10:50:09;;;;;;;1.82;0.95;;;;;;;38.78;21.15;100577.06;1834778;77;22143;-54
2021/05/23 10:52:57;;;;;;;2.17;1.00;;;;;;;38.81;20.79;100581.62;1727995;82;21143;-55
2021/05/23 10:55:31;;;;;;;1.65;1.00;;;;;;;38.91;22.58;100582.66;1827443;77;20381;-54
2021/05/23 10:58:05;;;;;;;3.83;1.10;;;;;;;39.12;21.07;100584.48;1820489;77;22629;-54
2021/05/23 11:00:39;;;;;;;5.30;1.10;;;;;;;39.22;21.87;100588.77;1834769;77;22674;-54
2021/05/23 11:03:26;;;;;;;1.67;1.00;;;;;;;39.37;20.40;100581.77;1727575;82;21596;-55
2021/05/23 11:06:07;;;;;;;2.08;1.20;;;;;;;39.35;19.93;100582.00;1825273;77;22116;-54
2021/05/23 11:08:46;;;;;;;2.45;1.15;;;;;;;39.25;20.62;100586.98;1812396;77;22175;-54
2021/05/23 11:11:20;;;;;;;2.20;1.00;;;;;;;39.10;19.70;100576.95;1834269;77;22144;-54
2021/05/23 11:13:53;;;;;;;1.98;1.10;;;;;;;39.22;21.32;100584.64;1799881;77;22189;-54
2021/05/23 11:16:56;;;;;;;7.33;1.85;;;;;;;39.59;20.78;100584.42;1732044;83;21150;-54
2021/05/23 11:19:32;;;;;;;1.82;1.00;;;;;;;40.28;20.63;100584.73;1834786;77;22132;-54
2021/05/23 11:22:05;;;;;;;5.00;1.22;;;;;;;40.89;19.35;100573.13;1816742;77;22151;-54
2021/05/23 11:24:50;;;;;;;10.60;1.60;;;;;;;41.28;19.44;100575.20;1762529;81;21253;-55
2021/05/23 11:27:24;;;;;;;9.10;1.67;;;;;;;41.66;19.16;100571.65;1827937;77;22185;-54
2021/05/23 11:29:57;;;;;;;3.15;0.95;;;;;;;41.88;19.13;100565.24;1834734;77;22132;-54
2021/05/23 11:32:43;;;;;;;1.90;0.90;;;;;;;41.83;17.24;100573.87;1728318;82;21357;-55
2021/05/23 11:35:24;;;;;;;1.45;1.02;;;;;;;41.72;18.73;100564.38;1834709;77;22168;-54
2021/05/23 11:37:57;;;;;;;3.22;1.22;;;;;;;41.80;17.21;100564.64;1840180;77;22189;-54
2021/05/23 11:40:44;;;;;;;5.80;1.40;;;;;;;41.46;17.84;100571.72;1790805;80;21268;-54
2021/05/23 11:43:20;;;;;;;8.48;1.57;;;;;;;41.40;18.15;100573.42;1835592;77;22185;-54
2021/05/23 11:46:05;;;;;;;8.05;1.50;;;;;;;41.26;17.34;100567.66;1834845;77;22152;-54
2021/05/23 11:48:41;;;;;;;4.75;1.10;;;;;;;40.93;18.43;100570.81;1812903;77;22174;-54
2021/05/23 11:51:16;;;;;;;3.90;1.15;;;;;;;40.75;18.28;100577.00;1775232;77;28479;-54
2021/05/23 11:54:03;;;;;;;11.80;1.07;;;;;;;40.53;16.89;100573.59;1760382;81;21235;-54
2021/05/23 11:56:36;;;;;;;4.30;1.05;;;;;;;40.32;17.06;100576.88;1834754;77;22179;-54
2021/05/23 11:59:10;;;;;;;1.00;0.80;;;;;;;40.00;16.96;100573.85;1805684;77;22186;-54
2021/05/23 12:02:02;;;;;;;0.88;0.80;;;;;;;39.66;16.60;100583.92;1805377;77;22252;-53
2021/05/23 12:04:35;;;;;;;2.00;1.00;;;;;;;39.34;17.48;100580.30;1821645;77;22524;-54
2021/05/23 12:07:21;;;;;;;1.17;0.78;;;;;;;39.22;17.88;100585.51;1788894;80;21193;-54
2021/05/23 12:09:57;;;;;;;1.42;1.00;;;;;;;38.95;17.25;100581.75;1827861;77;22167;-53
2021/05/23 12:12:29;;;;;;;2.10;1.10;;;;;;;38.45;18.04;100582.63;1828273;77;22174;-53